Corpus Christi Jet Center

SKYE FBO - AIRPORT SERVICES
McCampbell-Porter Airport KTFP
Call Us 24/7: (361) 758-2000
KTFP - McCampbell-Porter Airport
Updated: Sat, 15-Dec-2018 4:55pm PST
Clear
Clear
 Wind from N
Wind: N 7 mph , 11 km/h
Temperature: 57°F , 14°C
Dew Point: 32°F , 0°C
Humidity: 39%
Barometer: 30.22 inHg , 1023.4 hPa
Clouds: Clear
Visibility: 10 miles , 16 km
2018/12/16 00:55 KTFP 160055Z AUTO 35006KT 10SM CLR 14/00 A3022 RMK AO2 T01390003 PNO

Hours of Operation

8 am - 6 pm (7 days a week)
Terminal access 24/7
On call services 24/7 (fee may apply)
(361) 758-2000

Location

Skye FBO - Airport Services
McCampbell-Porter Airport KTFP
3141 FM 3512
Aransas Pass, TX 78336-9728
(361) 758-2000
2 miles N of Ingleside, TX
Only 15 min from downtown Corpus Christi 2 miles N of Ingleside, Texas and only 15 minutes from downtown Corpus Christi, Texas

(click to enlarge)

Skyview Aviation BBB Business Review

24 Hour / 365 Day Access

Call: (361) 758-2000


View Larger Map